Time;durP1;ratioP1;P1;durP2;ratioP2;P2;SDS_P1;SDS_P2;PMS_P1;PMS_P2;Temp;Humidity;BMP_temperature;BMP_pressure;BME280_temperature;BME280_humidity;BME280_pressure;Samples;Min_cycle;Max_cycle;Signal;HPM_P1;HPM_P2
2021/11/29 00:01:21;;;;;;;12.63;4.50;;;22.90;83.80;;;;;;5080592;28;20074;-67
2021/11/29 00:03:48;;;;;;;11.13;2.67;;;22.80;85.90;;;;;;5081637;28;20072;-67
2021/11/29 00:06:17;;;;;;;10.45;2.10;;;23.00;84.90;;;;;;5081924;28;20059;-67
2021/11/29 00:08:46;;;;;;;8.52;2.60;;;23.30;83.80;;;;;;5080136;28;20074;-67
2021/11/29 00:11:14;;;;;;;9.45;2.67;;;23.50;83.10;;;;;;5079687;28;20084;-67
2021/11/29 00:13:41;;;;;;;10.43;2.33;;;23.80;80.90;;;;;;5083185;28;20082;-68
2021/11/29 00:16:10;;;;;;;10.00;2.53;;;24.20;81.60;;;;;;5081203;28;20019;-68
2021/11/29 00:18:37;;;;;;;8.05;2.53;;;24.60;77.00;;;;;;5080958;28;20027;-67
2021/11/29 00:21:05;;;;;;;9.35;2.67;;;24.80;76.60;;;;;;5079156;28;20025;-67
2021/11/29 00:23:32;;;;;;;7.68;2.08;;;24.60;77.90;;;;;;5080577;28;20024;-67
2021/11/29 00:26:00;;;;;;;5.45;2.42;;;24.50;76.10;;;;;;5080541;28;20075;-66
2021/11/29 00:28:28;;;;;;;11.48;2.30;;;24.60;76.70;;;;;;5079231;28;20040;-67
2021/11/29 00:30:55;;;;;;;6.40;2.40;;;24.80;75.00;;;;;;5079179;28;20075;-66
2021/11/29 00:33:23;;;;;;;10.40;2.40;;;24.90;76.00;;;;;;5080137;28;20016;-67
2021/11/29 00:35:50;;;;;;;9.35;2.35;;;25.30;74.70;;;;;;5080754;28;20040;-67
2021/11/29 00:38:17;;;;;;;6.65;2.33;;;25.10;73.80;;;;;;5078053;28;20027;-68
2021/11/29 00:40:45;;;;;;;6.47;1.95;;;25.10;71.90;;;;;;5080719;28;20024;-66
2021/11/29 00:43:12;;;;;;;5.50;1.92;;;24.60;74.30;;;;;;5078867;28;20520;-66
2021/11/29 00:45:39;;;;;;;8.15;2.47;;;24.40;72.70;;;;;;5080792;28;20134;-66
2021/11/29 00:48:06;;;;;;;6.38;2.13;;;24.30;77.80;;;;;;5082856;28;20019;-67
2021/11/29 00:50:37;;;;;;;11.80;2.95;;;24.40;75.50;;;;;;5085065;28;20016;-66
2021/11/29 00:53:06;;;;;;;10.82;2.38;;;24.50;76.10;;;;;;5084656;28;20020;-66
2021/11/29 00:55:34;;;;;;;7.25;1.90;;;24.60;79.80;;;;;;5082373;28;20512;-66
2021/11/29 00:58:01;;;;;;;8.57;2.35;;;25.00;76.40;;;;;;5064487;28;20054;-66
2021/11/29 01:00:29;;;;;;;7.60;2.50;;;25.30;73.40;;;;;;5083993;28;20032;-68
2021/11/29 01:02:56;;;;;;;12.32;2.53;;;25.90;76.10;;;;;;5084957;28;20544;-68
2021/11/29 01:05:24;;;;;;;10.23;2.67;;;25.80;71.10;;;;;;5083144;28;20097;-67
2021/11/29 01:07:52;;;;;;;9.77;2.70;;;25.80;69.60;;;;;;5064879;28;20025;-65
2021/11/29 01:10:20;;;;;;;7.90;2.15;;;25.20;69.80;;;;;;5082132;28;20024;-67
2021/11/29 01:12:48;;;;;;;5.90;2.30;;;24.90;71.30;;;;;;5083844;28;20074;-66
2021/11/29 01:15:18;;;;;;;9.40;3.00;;;24.80;73.00;;;;;;5082159;28;20115;-68
2021/11/29 01:17:47;;;;;;;6.93;3.10;;;24.70;74.40;;;;;;5082572;28;20031;-67
2021/11/29 01:20:15;;;;;;;11.25;3.92;;;25.20;76.10;;;;;;5082022;28;20017;-67
2021/11/29 01:22:44;;;;;;;9.65;2.83;;;25.70;73.40;;;;;;5084468;28;20409;-67
2021/11/29 01:25:13;;;;;;;10.13;2.22;;;25.60;72.30;;;;;;5083401;28;20124;-67
2021/11/29 01:27:40;;;;;;;6.72;1.90;;;25.10;71.10;;;;;;5082225;28;20048;-66
2021/11/29 01:30:09;;;;;;;8.13;2.80;;;25.10;70.70;;;;;;5082821;28;20387;-65
2021/11/29 01:32:37;;;;;;;9.05;2.83;;;25.00;73.60;;;;;;5083631;28;20517;-66
2021/11/29 01:35:05;;;;;;;9.38;2.58;;;25.30;76.70;;;;;;5082032;28;20446;-66
2021/11/29 01:37:33;;;;;;;8.05;2.08;;;25.60;75.70;;;;;;5082937;28;20057;-66
2021/11/29 01:40:00;;;;;;;7.18;2.15;;;26.10;74.20;;;;;;5085266;28;20087;-67
2021/11/29 01:42:27;;;;;;;5.18;1.63;;;26.50;72.60;;;;;;5083414;28;20044;-66
2021/11/29 01:44:56;;;;;;;9.63;2.45;;;26.60;71.40;;;;;;5082686;28;20607;-66
2021/11/29 01:47:24;;;;;;;6.95;2.35;;;26.50;72.40;;;;;;5081666;28;20024;-66
2021/11/29 01:49:52;;;;;;;7.55;2.35;;;26.30;71.80;;;;;;5082767;28;20028;-65
2021/11/29 01:52:19;;;;;;;7.05;1.75;;;26.20;70.10;;;;;;5083707;28;20020;-65
2021/11/29 01:54:47;;;;;;;7.15;2.20;;;25.80;73.40;;;;;;5081294;28;20516;-65
2021/11/29 01:57:14;;;;;;;6.40;2.78;;;25.60;74.90;;;;;;5081020;28;20127;-65
2021/11/29 01:59:43;;;;;;;7.93;2.25;;;25.50;73.40;;;;;;5082625;28;20024;-65
2021/11/29 02:02:12;;;;;;;7.45;2.13;;;25.70;73.30;;;;;;5083251;28;20024;-67
2021/11/29 02:04:41;;;;;;;6.60;2.22;;;26.00;73.40;;;;;;5079462;28;20025;-66
2021/11/29 02:07:10;;;;;;;6.28;1.95;;;26.50;73.60;;;;;;5082287;28;20024;-66
2021/11/29 02:09:38;;;;;;;7.00;2.35;;;26.70;70.60;;;;;;5083677;28;20099;-65
2021/11/29 02:12:06;;;;;;;8.18;2.00;;;26.70;68.20;;;;;;5063649;28;20020;-66
2021/11/29 02:14:33;;;;;;;9.43;1.70;;;26.40;72.40;;;;;;5080007;28;20053;-66
2021/11/29 02:17:01;;;;;;;10.73;2.95;;;26.30;71.40;;;;;;5081362;28;20024;-65
2021/11/29 02:19:29;;;;;;;6.50;2.05;;;26.50;71.80;;;;;;5082634;28;20407;-66
2021/11/29 02:21:56;;;;;;;6.22;2.15;;;26.40;71.20;;;;;;5080600;28;20400;-66
2021/11/29 02:24:23;;;;;;;6.65;2.00;;;26.30;73.70;;;;;;5081816;28;20032;-67
2021/11/29 02:26:51;;;;;;;7.43;3.35;;;26.30;74.90;;;;;;5082392;28;20094;-67
2021/11/29 02:29:18;;;;;;;6.15;2.15;;;26.30;73.40;;;;;;5080721;28;20020;-65
2021/11/29 02:31:48;;;;;;;9.95;2.67;;;26.30;73.50;;;;;;5081267;28;20063;-67
2021/11/29 02:34:24;;;;;;;10.82;3.28;;;26.50;74.80;;;;;;5065036;28;20482;-66
2021/11/29 02:36:55;;;;;;;7.15;2.35;;;26.70;72.80;;;;;;5078907;28;20493;-66
2021/11/29 02:39:23;;;;;;;5.55;1.48;;;26.70;73.80;;;;;;5079219;28;20424;-66
2021/11/29 02:41:51;;;;;;;5.57;1.73;;;27.30;72.40;;;;;;5079608;28;20059;-66
2021/11/29 02:44:19;;;;;;;5.55;1.70;;;28.10;71.70;;;;;;5078817;28;20056;-67
2021/11/29 02:46:46;;;;;;;6.53;1.60;;;28.60;70.70;;;;;;5079180;28;20031;-66
2021/11/29 02:49:15;;;;;;;8.95;1.95;;;29.10;67.50;;;;;;5076650;28;20422;-66
2021/11/29 02:51:53;;;;;;;5.22;1.77;;;29.10;67.60;;;;;;5080511;28;20130;-68
2021/11/29 02:54:24;;;;;;;6.78;2.40;;;28.80;67.30;;;;;;5079496;28;20052;-67
2021/11/29 02:56:56;;;;;;;8.10;1.92;;;29.20;70.80;;;;;;5078765;28;20054;-69
2021/11/29 02:59:27;;;;;;;6.30;1.73;;;29.50;68.10;;;;;;5074930;28;20576;-66
2021/11/29 03:01:57;;;;;;;5.50;1.90;;;28.80;66.30;;;;;;5075012;28;20024;-65
2021/11/29 03:04:27;;;;;;;7.50;1.90;;;28.40;67.80;;;;;;5067535;28;20027;-67
2021/11/29 03:06:57;;;;;;;5.60;3.47;;;28.20;68.40;;;;;;5076679;28;20032;-68
2021/11/29 03:09:25;;;;;;;8.00;3.00;;;28.30;69.90;;;;;;5077776;28;20078;-66
2021/11/29 03:11:53;;;;;;;9.00;4.40;;;28.70;69.50;;;;;;5067580;28;20058;-68
2021/11/29 03:14:21;;;;;;;6.10;2.90;;;28.80;66.40;;;;;;5066633;28;20417;-67
2021/11/29 03:16:52;;;;;;;4.13;1.92;;;28.80;68.30;;;;;;5066907;28;20083;-67
2021/11/29 03:19:20;;;;;;;4.03;2.23;;;28.80;66.20;;;;;;5073059;28;20450;-67
2021/11/29 03:21:48;;;;;;;5.38;1.98;;;29.00;65.40;;;;;;5075247;28;20067;-67
2021/11/29 03:24:15;;;;;;;6.53;1.92;;;28.90;66.90;;;;;;5067023;28;20029;-67
2021/11/29 03:26:43;;;;;;;5.90;2.08;;;29.20;65.70;;;;;;5066521;28;20028;-67
2021/11/29 03:29:15;;;;;;;7.00;2.08;;;29.10;65.70;;;;;;5067203;28;20067;-67
2021/11/29 03:31:44;;;;;;;5.32;2.20;;;28.80;68.20;;;;;;5067443;28;20032;-67
2021/11/29 03:34:14;;;;;;;8.77;2.60;;;28.70;68.40;;;;;;5066838;28;20048;-67
2021/11/29 03:36:45;;;;;;;7.22;2.15;;;28.50;66.40;;;;;;5066796;28;20048;-67
2021/11/29 03:39:17;;;;;;;8.73;2.45;;;28.50;66.80;;;;;;5066642;28;20550;-67
2021/11/29 03:41:46;;;;;;;6.90;2.10;;;28.50;67.70;;;;;;5067089;28;20023;-67
2021/11/29 03:44:15;;;;;;;7.50;2.15;;;29.00;66.70;;;;;;5067023;28;20055;-67
2021/11/29 03:46:43;;;;;;;4.28;1.80;;;28.60;67.20;;;;;;5066518;28;20033;-67
2021/11/29 03:49:11;;;;;;;10.32;2.30;;;28.90;67.00;;;;;;5047012;28;20391;-67
2021/11/29 03:51:38;;;;;;;7.22;2.10;;;29.00;68.20;;;;;;5066649;28;20112;-68
2021/11/29 03:54:06;;;;;;;6.45;2.25;;;28.80;66.70;;;;;;5067138;28;20021;-68
2021/11/29 03:56:33;;;;;;;6.68;2.03;;;28.50;67.30;;;;;;5066646;28;20024;-68
2021/11/29 03:59:02;;;;;;;8.15;2.13;;;28.60;67.20;;;;;;5066674;28;20349;-68
2021/11/29 04:01:29;;;;;;;7.35;2.65;;;29.00;66.90;;;;;;5066376;28;20364;-68
2021/11/29 04:03:56;;;;;;;5.07;1.70;;;28.80;68.00;;;;;;5066588;28;20021;-67
2021/11/29 04:06:23;;;;;;;7.88;2.65;;;28.70;68.10;;;;;;5070421;28;20057;-67
2021/11/29 04:08:50;;;;;;;6.50;1.92;;;28.70;68.10;;;;;;5079153;28;20054;-74
2021/11/29 04:11:18;;;;;;;7.43;2.67;;;28.70;68.10;;;;;;5082901;28;20028;-73
2021/11/29 04:13:45;;;;;;;7.80;2.50;;;28.10;68.60;;;;;;5073876;28;20038;-73
2021/11/29 04:16:15;;;;;;;6.53;2.13;;;27.90;70.30;;;;;;5078839;28;20433;-71
2021/11/29 04:18:43;;;;;;;7.22;2.72;;;27.90;70.80;;;;;;5071062;28;21025;-71
2021/11/29 04:21:12;;;;;;;5.25;1.88;;;27.90;72.10;;;;;;5085456;28;20070;-71
2021/11/29 04:23:43;;;;;;;4.95;2.17;;;28.10;72.60;;;;;;5081062;28;20043;-69
2021/11/29 04:26:13;;;;;;;7.20;2.28;;;28.30;70.30;;;;;;5069649;28;20035;-66
2021/11/29 04:28:40;;;;;;;5.40;2.47;;;28.20;70.90;;;;;;5087966;28;20040;-67
2021/11/29 04:31:07;;;;;;;9.73;4.35;;;28.20;70.00;;;;;;5087191;28;20028;-67
2021/11/29 04:33:35;;;;;;;8.98;3.85;;;27.90;71.30;;;;;;5073798;28;20024;-64
2021/11/29 04:36:03;;;;;;;9.40;2.63;;;27.90;72.60;;;;;;5069952;28;20040;-65
2021/11/29 04:38:31;;;;;;;4.95;2.00;;;28.20;71.80;;;;;;5069592;28;20080;-66
2021/11/29 04:40:58;;;;;;;7.85;1.98;;;27.90;71.90;;;;;;5072930;28;20130;-71
2021/11/29 04:43:25;;;;;;;7.47;2.33;;;27.90;72.60;;;;;;5079645;28;20047;-67
2021/11/29 04:45:52;;;;;;;5.10;1.77;;;27.90;72.60;;;;;;5080721;28;20599;-73
2021/11/29 04:48:20;;;;;;;8.32;2.22;;;27.60;72.30;;;;;;5073935;28;20017;-70
2021/11/29 04:50:47;;;;;;;7.43;2.20;;;27.70;73.50;;;;;;5073036;28;20089;-66
2021/11/29 04:53:14;;;;;;;8.35;2.55;;;27.80;74.00;;;;;;5076234;28;20570;-73
2021/11/29 04:55:41;;;;;;;5.45;2.00;;;27.90;73.60;;;;;;5080230;28;20098;-72
2021/11/29 04:58:08;;;;;;;8.35;3.08;;;27.90;73.10;;;;;;5078605;28;20102;-73
2021/11/29 05:00:36;;;;;;;11.23;3.83;;;27.90;73.00;;;;;;5072905;28;20021;-67
2021/11/29 05:03:03;;;;;;;8.15;3.13;;;27.70;74.70;;;;;;5076971;28;20046;-66
2021/11/29 05:05:30;;;;;;;6.80;2.05;;;27.30;75.50;;;;;;5078784;28;20555;-73
2021/11/29 05:07:57;;;;;;;7.88;2.90;;;27.00;76.90;;;;;;5075659;28;20025;-72
2021/11/29 05:10:24;;;;;;;4.60;1.85;;;26.80;76.40;;;;;;5081387;28;20028;-65
2021/11/29 05:12:52;;;;;;;4.93;2.08;;;26.60;78.00;;;;;;5059520;28;20031;-69
2021/11/29 05:15:20;;;;;;;4.90;1.98;;;26.50;78.70;;;;;;5078111;28;20039;-68
2021/11/29 05:17:47;;;;;;;10.70;2.33;;;26.50;79.70;;;;;;5079359;28;20031;-73
2021/11/29 05:20:14;;;;;;;7.45;1.98;;;26.30;79.00;;;;;;5083359;28;20103;-73
2021/11/29 05:22:42;;;;;;;6.28;1.88;;;26.30;80.80;;;;;;5083152;28;20055;-72
2021/11/29 05:25:09;;;;;;;6.15;1.92;;;26.40;80.00;;;;;;5069667;28;20028;-72
2021/11/29 05:27:37;;;;;;;4.13;1.70;;;26.40;81.90;;;;;;5077563;28;20060;-66
2021/11/29 05:30:07;;;;;;;6.43;1.88;;;26.30;82.00;;;;;;5086241;28;20739;-69
2021/11/29 05:32:37;;;;;;;6.57;2.10;;;26.00;82.20;;;;;;5077858;28;20573;-64
2021/11/29 05:35:06;;;;;;;9.45;2.58;;;25.90;83.00;;;;;;5073044;28;20024;-66
2021/11/29 05:37:33;;;;;;;7.85;1.90;;;25.80;83.10;;;;;;5069474;28;20032;-67
2021/11/29 05:40:01;;;;;;;5.40;2.10;;;25.80;83.60;;;;;;5074493;28;20028;-67
2021/11/29 05:42:28;;;;;;;5.88;2.22;;;25.90;83.50;;;;;;5069006;28;20021;-70
2021/11/29 05:44:55;;;;;;;7.57;2.70;;;25.90;84.30;;;;;;5067709;28;20071;-70
2021/11/29 05:47:22;;;;;;;11.20;4.30;;;25.70;85.30;;;;;;5068073;28;20196;-64
2021/11/29 05:49:51;;;;;;;9.45;4.50;;;25.70;84.30;;;;;;5067117;28;20020;-71
2021/11/29 05:52:18;;;;;;;9.88;4.70;;;25.70;86.10;;;;;;5068302;28;20471;-70
2021/11/29 05:54:45;;;;;;;7.22;2.90;;;25.90;86.70;;;;;;5068976;28;20089;-67
2021/11/29 05:57:13;;;;;;;6.50;2.97;;;25.70;86.60;;;;;;5075783;28;20504;-70
2021/11/29 05:59:40;;;;;;;8.30;2.30;;;25.70;88.20;;;;;;5068638;28;20120;-70
2021/11/29 06:02:08;;;;;;;5.10;2.33;;;25.80;87.60;;;;;;5067668;28;20024;-70
2021/11/29 06:04:35;;;;;;;7.53;2.58;;;25.90;86.80;;;;;;5068732;28;20025;-67
2021/11/29 06:07:02;;;;;;;7.95;3.80;;;25.90;86.60;;;;;;5068131;28;20020;-64
2021/11/29 06:09:29;;;;;;;6.82;2.15;;;25.70;87.10;;;;;;5068404;28;20078;-70
2021/11/29 06:11:56;;;;;;;7.13;2.60;;;25.60;88.00;;;;;;5068056;28;20028;-67
2021/11/29 06:14:25;;;;;;;7.60;4.28;;;25.50;87.80;;;;;;5066961;28;20032;-70
2021/11/29 06:16:54;;;;;;;5.28;2.20;;;25.50;88.90;;;;;;5067669;28;20024;-67
2021/11/29 06:19:21;;;;;;;7.70;2.63;;;25.60;89.50;;;;;;5068255;28;20104;-70
2021/11/29 06:21:48;;;;;;;7.82;2.20;;;25.60;90.30;;;;;;5067996;28;20067;-70
2021/11/29 06:24:16;;;;;;;10.05;2.10;;;25.60;90.20;;;;;;5067740;28;20027;-66
2021/11/29 06:26:45;;;;;;;6.47;1.80;;;25.60;90.30;;;;;;5066910;28;20760;-70
2021/11/29 06:29:12;;;;;;;8.15;2.10;;;25.60;90.10;;;;;;5067909;28;20529;-70
2021/11/29 06:31:39;;;;;;;6.53;2.17;;;25.70;89.60;;;;;;5067758;28;20027;-65
2021/11/29 06:34:07;;;;;;;6.28;1.80;;;25.80;88.90;;;;;;5067743;28;20029;-67
2021/11/29 06:36:34;;;;;;;8.35;2.05;;;25.80;89.30;;;;;;5049826;28;20681;-65
2021/11/29 06:39:03;;;;;;;9.75;2.13;;;25.70;90.20;;;;;;5066997;28;20012;-68
2021/11/29 06:41:31;;;;;;;5.97;2.28;;;25.60;90.00;;;;;;5067406;28;20479;-70
2021/11/29 06:43:58;;;;;;;6.25;1.70;;;25.50;89.60;;;;;;5066745;28;20028;-67
2021/11/29 06:46:25;;;;;;;8.20;2.38;;;25.40;90.40;;;;;;5067540;28;20078;-71
2021/11/29 06:48:52;;;;;;;7.13;2.42;;;25.40;89.00;;;;;;5066819;28;20549;-65
2021/11/29 06:51:23;;;;;;;9.90;2.47;;;25.20;88.10;;;;;;5077328;28;20030;-65
2021/11/29 06:53:51;;;;;;;10.60;2.80;;;24.90;87.50;;;;;;5066974;28;20753;-69
2021/11/29 06:56:18;;;;;;;10.70;3.10;;;24.40;90.40;;;;;;5074676;28;20177;-65
2021/11/29 06:58:45;;;;;;;10.98;3.47;;;24.10;91.10;;;;;;5067422;28;20366;-70
2021/11/29 07:01:13;;;;;;;10.05;2.65;;;23.80;91.60;;;;;;5048783;28;20024;-68
2021/11/29 07:03:40;;;;;;;12.15;2.95;;;23.40;92.70;;;;;;5066724;28;20104;-65
2021/11/29 07:06:07;;;;;;;9.48;2.63;;;23.10;93.40;;;;;;5078430;28;20104;-68
2021/11/29 07:08:35;;;;;;;10.45;2.97;;;23.00;94.90;;;;;;5070165;28;20496;-72
2021/11/29 07:11:02;;;;;;;16.05;4.63;;;22.90;95.00;;;;;;5066019;28;20418;-66
2021/11/29 07:13:30;;;;;;;10.05;3.10;;;22.70;95.60;;;;;;5066659;28;20071;-71
2021/11/29 07:15:57;;;;;;;11.68;2.67;;;22.60;96.20;;;;;;5066512;28;20032;-66
2021/11/29 07:18:24;;;;;;;11.43;2.42;;;22.60;96.50;;;;;;5066656;28;20103;-64
2021/11/29 07:20:51;;;;;;;10.45;2.38;;;22.50;96.50;;;;;;5084875;28;20020;-67
2021/11/29 07:23:18;;;;;;;12.32;2.70;;;22.40;97.10;;;;;;5073159;28;20847;-66
2021/11/29 07:25:45;;;;;;;15.85;4.13;;;22.30;97.40;;;;;;5078673;28;20065;-72
2021/11/29 07:28:13;;;;;;;10.02;2.92;;;22.40;97.50;;;;;;5074601;28;20044;-71
2021/11/29 07:30:40;;;;;;;7.80;2.35;;;22.50;98.50;;;;;;5075230;28;20794;-68
2021/11/29 07:33:07;;;;;;;9.55;3.05;;;22.60;97.70;;;;;;5069226;28;20421;-65
2021/11/29 07:35:35;;;;;;;10.98;3.03;;;22.60;97.70;;;;;;5075081;28;20028;-70
2021/11/29 07:38:02;;;;;;;12.82;2.97;;;22.50;98.00;;;;;;5074288;28;20076;-65
2021/11/29 07:40:31;;;;;;;9.20;2.72;;;22.30;98.50;;;;;;5074329;28;20063;-65
2021/11/29 07:43:06;;;;;;;7.78;2.55;;;22.20;98.70;;;;;;5075690;28;20020;-70
2021/11/29 07:45:34;;;;;;;10.50;2.60;;;22.10;99.00;;;;;;5080068;28;20024;-65
2021/11/29 07:48:02;;;;;;;13.73;3.53;;;21.90;99.50;;;;;;5072589;28;20032;-69
2021/11/29 07:50:30;;;;;;;9.48;2.75;;;21.70;99.60;;;;;;5069687;28;20109;-70
2021/11/29 07:52:58;;;;;;;12.10;3.33;;;21.60;99.90;;;;;;5069361;28;20070;-68
2021/11/29 07:55:28;;;;;;;9.57;3.25;;;21.50;99.90;;;;;;5080444;28;20743;-65
2021/11/29 07:57:56;;;;;;;10.60;2.95;;;21.50;99.90;;;;;;5079371;28;20020;-71
2021/11/29 08:00:26;;;;;;;8.77;2.60;;;21.40;99.90;;;;;;5077026;28;20090;-69
2021/11/29 08:02:59;;;;;;;10.10;2.45;;;21.20;99.90;;;;;;5077987;28;20029;-72
2021/11/29 08:05:28;;;;;;;14.13;3.70;;;21.10;99.90;;;;;;5076161;28;20107;-72
2021/11/29 08:08:00;;;;;;;8.80;2.25;;;20.90;99.90;;;;;;5078597;28;20035;-70
2021/11/29 08:10:28;;;;;;;13.02;3.55;;;20.80;99.90;;;;;;5082972;28;20107;-65
2021/11/29 08:12:55;;;;;;;10.13;3.80;;;20.80;99.90;;;;;;5076566;28;20043;-72
2021/11/29 08:15:22;;;;;;;15.15;2.80;;;20.80;99.90;;;;;;5083861;28;20032;-67
2021/11/29 08:17:50;;;;;;;10.63;2.42;;;20.70;99.90;;;;;;5077288;28;20020;-66
2021/11/29 08:20:23;;;;;;;10.13;3.03;;;20.60;99.90;;;;;;5077070;28;20731;-67
2021/11/29 08:22:51;;;;;;;9.23;2.60;;;20.60;99.90;;;;;;5081507;28;20707;-66
2021/11/29 08:25:19;;;;;;;10.45;3.05;;;20.50;99.90;;;;;;5081253;28;20082;-69
2021/11/29 08:27:46;;;;;;;12.05;3.33;;;20.50;99.90;;;;;;5077222;28;20558;-69
2021/11/29 08:30:16;;;;;;;13.48;3.45;;;20.40;99.90;;;;;;5073389;28;20032;-67
2021/11/29 08:32:44;;;;;;;10.98;3.88;;;20.30;99.90;;;;;;5077799;28;20064;-71
2021/11/29 08:35:13;;;;;;;12.13;3.22;;;20.20;99.90;;;;;;5076606;28;21492;-71
2021/11/29 08:37:45;;;;;;;10.65;2.78;;;20.10;99.90;;;;;;5060079;28;20032;-69
2021/11/29 08:40:15;;;;;;;12.07;3.00;;;20.10;99.90;;;;;;5069280;28;20028;-70
2021/11/29 08:42:42;;;;;;;9.30;2.90;;;20.00;99.90;;;;;;5076440;28;20047;-72
2021/11/29 08:45:09;;;;;;;11.95;3.60;;;19.90;99.90;;;;;;5078668;28;20039;-66
2021/11/29 08:47:37;;;;;;;10.48;3.70;;;19.90;99.90;;;;;;5078198;28;20031;-70
2021/11/29 08:50:06;;;;;;;16.05;3.50;;;19.90;99.90;;;;;;5070614;28;20078;-69
2021/11/29 08:52:36;;;;;;;10.02;3.10;;;19.90;99.90;;;;;;5077636;28;20576;-67
2021/11/29 08:55:09;;;;;;;12.88;3.30;;;19.90;99.90;;;;;;5069692;28;20065;-68
2021/11/29 08:57:37;;;;;;;13.65;3.45;;;19.90;99.90;;;;;;5079140;28;20530;-65
2021/11/29 09:00:17;;;;;;;7.93;3.00;;;19.80;99.90;;;;;;5072887;28;20047;-67
2021/11/29 09:02:45;;;;;;;11.00;2.83;;;19.80;99.90;;;;;;5079232;28;20036;-66
2021/11/29 09:05:13;;;;;;;11.93;3.72;;;19.70;99.90;;;;;;5069719;28;20021;-66
2021/11/29 09:07:40;;;;;;;9.77;2.88;;;19.70;99.90;;;;;;5071315;28;20028;-69
2021/11/29 09:10:09;;;;;;;12.27;3.33;;;19.70;99.90;;;;;;5071909;28;20078;-66
2021/11/29 09:12:37;;;;;;;9.57;2.88;;;19.60;99.90;;;;;;5078707;28;20032;-68
2021/11/29 09:15:09;;;;;;;10.93;3.70;;;19.60;99.90;;;;;;5072320;28;20028;-71
2021/11/29 09:17:37;;;;;;;15.80;3.42;;;19.60;99.90;;;;;;5080202;28;20028;-68
2021/11/29 09:20:09;;;;;;;8.00;2.50;;;19.60;99.90;;;;;;5077159;28;20032;-68
2021/11/29 09:22:37;;;;;;;;;;;19.50;99.90;;;;;;5078561;28;20020;-66
2021/11/29 09:25:05;;;;;;;11.10;2.75;;;19.50;99.90;;;;;;5071801;28;19912;-68
2021/11/29 09:27:32;;;;;;;13.18;2.47;;;19.40;99.90;;;;;;5077832;28;20162;-68
2021/11/29 09:30:00;;;;;;;10.32;2.83;;;19.40;99.90;;;;;;5077134;28;20032;-70
2021/11/29 09:32:28;;;;;;;8.98;2.67;;;19.50;99.90;;;;;;5069296;28;20073;-68
2021/11/29 09:34:55;;;;;;;12.73;2.80;;;19.50;99.90;;;;;;5066468;28;20031;-71
2021/11/29 09:37:23;;;;;;;11.77;2.78;;;19.40;99.90;;;;;;5074116;28;20028;-71
2021/11/29 09:39:50;;;;;;;10.57;3.45;;;19.50;99.90;;;;;;5067653;28;20036;-75
2021/11/29 09:42:17;;;;;;;12.00;3.75;;;19.50;99.90;;;;;;5066585;28;20029;-68
2021/11/29 09:44:44;;;;;;;13.02;4.28;;;19.50;99.90;;;;;;5076429;28;20028;-72
2021/11/29 09:47:12;;;;;;;11.45;2.78;;;19.50;99.90;;;;;;5081403;28;20028;-70
2021/11/29 09:49:40;;;;;;;10.60;3.13;;;19.60;99.90;;;;;;5081208;28;20479;-68
2021/11/29 09:52:08;;;;;;;13.32;3.03;;;19.60;99.90;;;;;;5073790;28;20031;-69
2021/11/29 09:54:35;;;;;;;6.85;2.20;;;19.60;99.90;;;;;;5078041;28;20080;-67
2021/11/29 09:57:02;;;;;;;11.95;3.17;;;19.50;99.90;;;;;;5068186;28;20120;-71
2021/11/29 09:59:29;;;;;;;9.13;3.35;;;19.50;99.90;;;;;;5072735;28;20071;-70
2021/11/29 10:01:57;;;;;;;5.90;2.65;;;19.50;99.90;;;;;;5077385;28;20032;-65
2021/11/29 10:04:24;;;;;;;8.65;2.58;;;19.40;99.90;;;;;;5077214;28;20020;-68
2021/11/29 10:06:59;;;;;;;11.93;2.90;;;19.30;99.90;;;;;;5067251;28;20386;-71
2021/11/29 10:09:28;;;;;;;7.80;2.40;;;19.30;99.90;;;;;;5070255;28;20557;-72
2021/11/29 10:12:09;;;;;;;14.60;7.10;;;19.20;99.90;;;;;;5077712;28;20039;-68
2021/11/29 10:14:39;;;;;;;8.40;3.00;;;19.30;99.90;;;;;;5075032;28;20039;-70
2021/11/29 10:17:07;;;;;;;16.15;6.07;;;19.30;99.90;;;;;;5073951;28;20016;-69
2021/11/29 10:19:38;;;;;;;8.70;3.60;;;19.20;99.90;;;;;;5069027;28;20098;-69
2021/11/29 10:22:18;;;;;;;10.32;3.47;;;19.10;99.90;;;;;;5075237;28;20031;-68
2021/11/29 10:24:48;;;;;;;8.05;2.60;;;19.10;99.90;;;;;;5079421;28;20024;-73
2021/11/29 10:27:17;;;;;;;9.13;2.78;;;19.10;99.90;;;;;;5121012;22;20053;-68
2021/11/29 10:29:57;;;;;;;11.02;5.00;;;19.10;99.90;;;;;;5093321;28;20176;-67
2021/11/29 10:32:40;;;;;;;13.60;4.60;;;19.10;99.90;;;;;;5056989;28;20485;-67
2021/11/29 10:35:09;;;;;;;11.80;3.97;;;19.10;99.90;;;;;;5087099;28;20300;-74
2021/11/29 10:37:39;;;;;;;9.13;2.60;;;19.10;99.90;;;;;;5083371;28;20513;-66
2021/11/29 10:40:14;;;;;;;9.80;2.20;;;19.20;99.90;;;;;;5092069;28;20035;-69
2021/11/29 10:42:41;;;;;;;11.23;2.20;;;19.10;99.90;;;;;;5097608;28;20066;-75
2021/11/29 10:45:19;;;;;;;8.73;2.58;;;19.10;99.90;;;;;;5081293;28;20461;-69
2021/11/29 10:47:49;;;;;;;5.85;1.85;;;19.10;99.90;;;;;;5082745;28;20139;-68
2021/11/29 10:50:16;;;;;;;10.48;2.35;;;19.20;99.90;;;;;;5087723;28;20016;-74
2021/11/29 10:52:46;;;;;;;6.95;2.25;;;19.20;99.90;;;;;;5098212;28;20031;-74
2021/11/29 10:55:14;;;;;;;4.88;2.03;;;19.20;99.90;;;;;;5099422;28;20482;-74
2021/11/29 10:57:52;;;;;;;7.63;2.45;;;19.20;99.90;;;;;;5098817;28;20059;-74
2021/11/29 11:00:19;;;;;;;7.68;2.38;;;19.30;99.90;;;;;;5096297;28;20122;-76
2021/11/29 11:03:05;;;;;;;8.10;3.22;;;19.30;99.90;;;;;;5099481;28;20028;-69
2021/11/29 11:05:33;;;;;;;10.35;3.40;;;19.10;99.90;;;;;;5098485;28;20544;-72
2021/11/29 11:08:08;;;;;;;11.98;2.75;;;19.00;99.90;;;;;;5101308;28;20549;-75
2021/11/29 11:10:35;;;;;;;7.45;2.75;;;19.10;99.90;;;;;;5097454;28;20053;-73
2021/11/29 11:13:04;;;;;;;7.72;2.30;;;19.20;99.90;;;;;;5100140;28;20036;-70
2021/11/29 11:15:42;;;;;;;8.15;2.17;;;19.10;99.90;;;;;;5099912;28;20035;-75
2021/11/29 11:18:10;;;;;;;11.23;3.50;;;19.10;99.90;;;;;;5101547;28;20016;-72
2021/11/29 11:20:37;;;;;;;7.00;2.50;;;19.10;99.90;;;;;;5100515;28;20104;-69
2021/11/29 11:23:04;;;;;;;10.80;3.38;;;19.10;99.90;;;;;;5100135;28;20039;-68
2021/11/29 11:25:42;;;;;;;12.90;2.65;;;19.10;99.90;;;;;;5102901;28;20028;-70
2021/11/29 11:28:10;;;;;;;12.32;3.08;;;19.20;99.90;;;;;;5098282;28;20042;-68
2021/11/29 11:30:42;;;;;;;9.52;2.90;;;19.10;99.90;;;;;;5097703;28;20031;-68
2021/11/29 11:33:14;;;;;;;9.38;3.25;;;19.10;99.90;;;;;;5083670;28;20077;-69
2021/11/29 11:35:44;;;;;;;7.73;2.60;;;19.20;99.90;;;;;;5098787;28;20039;-70
2021/11/29 11:38:20;;;;;;;10.30;3.13;;;19.20;99.90;;;;;;4745789;28;10000356;-71
2021/11/29 11:40:51;;;;;;;7.88;2.47;;;19.10;99.90;;;;;;5098760;28;20865;-72
2021/11/29 11:43:20;;;;;;;8.88;2.72;;;19.00;99.90;;;;;;5095032;28;20138;-70
2021/11/29 11:45:49;;;;;;;8.20;3.03;;;19.00;99.90;;;;;;5098398;28;20032;-67
2021/11/29 11:48:18;;;;;;;8.77;2.88;;;19.00;99.90;;;;;;5098637;28;20016;-68
2021/11/29 11:50:54;;;;;;;5.50;2.50;;;19.00;99.90;;;;;;5099186;28;20028;-73
2021/11/29 11:53:22;;;;;;;7.25;2.28;;;19.00;99.90;;;;;;5095682;28;20385;-67
2021/11/29 11:55:52;;;;;;;8.32;2.30;;;18.90;99.90;;;;;;5098812;28;20110;-73
2021/11/29 11:58:21;;;;;;;10.25;3.30;;;18.80;99.90;;;;;;5100897;28;20023;-68
2021/11/29 12:00:54;;;;;;;7.40;2.28;;;18.80;99.90;;;;;;5099514;28;20078;-72
2021/11/29 12:03:35;;;;;;;9.95;2.88;;;18.80;99.90;;;;;;5100896;28;20016;-72
2021/11/29 12:06:05;;;;;;;10.77;3.20;;;18.90;99.90;;;;;;5098237;28;20028;-68
2021/11/29 12:09:00;;;;;;;7.95;2.40;;;18.90;99.90;;;;;;5100485;28;20085;-73
2021/11/29 12:11:31;;;;;;;8.77;2.95;;;18.80;99.90;;;;;;5098560;28;20031;-71
2021/11/29 12:14:17;;;;;;;13.30;2.75;;;18.80;99.90;;;;;;4750128;28;10000373;-68
2021/11/29 12:16:44;;;;;;;12.15;2.85;;;18.90;99.90;;;;;;5102369;28;20023;-73
2021/11/29 12:19:37;;;;;;;12.18;2.55;;;19.00;99.90;;;;;;5102794;28;20051;-70
2021/11/29 12:22:25;;;;;;;8.15;2.92;;;18.90;99.90;;;;;;5085386;28;20019;-72
2021/11/29 12:24:55;;;;;;;5.72;2.42;;;18.80;99.90;;;;;;5092847;28;20071;-67
2021/11/29 12:27:23;;;;;;;10.57;2.95;;;18.80;99.90;;;;;;5102596;28;20099;-66
2021/11/29 12:29:52;;;;;;;6.60;2.47;;;18.90;99.90;;;;;;5101525;28;20093;-71
2021/11/29 12:32:22;;;;;;;8.52;2.97;;;18.90;99.90;;;;;;5103762;28;21387;-69
2021/11/29 12:34:57;;;;;;;6.07;2.38;;;19.00;99.90;;;;;;5103287;28;20641;-70
2021/11/29 12:37:44;;;;;;;10.35;3.17;;;18.90;99.90;;;;;;5102037;28;20415;-66
2021/11/29 12:40:13;;;;;;;13.05;3.10;;;18.90;99.90;;;;;;5102290;28;20020;-69
2021/11/29 12:42:42;;;;;;;10.55;2.83;;;18.90;99.90;;;;;;5103054;28;20098;-70
2021/11/29 12:45:09;;;;;;;12.55;2.92;;;18.90;99.90;;;;;;5107677;28;20892;-68
2021/11/29 12:47:45;;;;;;;9.70;2.83;;;18.90;99.90;;;;;;5084825;28;20112;-73
2021/11/29 12:50:34;;;;;;;9.90;2.80;;;18.80;99.90;;;;;;5106426;28;20027;-66
2021/11/29 12:53:22;;;;;;;11.63;3.08;;;18.80;99.90;;;;;;5104806;28;20019;-71